Kinkler, Texas
Current Conditions -  °F | °C
As of 10:15 AM on Thursday 23 Oct 2014 (Local Time) from K66R Reporting Station
Clear Clear  
Wind Chill: 66°   Ceiling: Unl
Heat Index: 66°   Visibility: 10mi
Dew Point: 57°   Wind: 5mph
Humidity: 72%   Direction: 60°ENE
Pressure: 30.14"   Gusts: NA
Location:  29.3984°N, 96.8256°W
Report Text: K66R 231515Z AUTO 06004KT 10SM CLR 19/14 A3014 RMK AO2 T01910140
Loading
Personal Weather Stations






























Interactive Weather Map
Tropical Storm Tracking
New forecast layout! Learn more

10-Day Weather Forecast

Advertisements
Track Severe Weather on mobile